sensor_id;sensor_type;location;lat;lon;timestamp;P1;durP1;ratioP1;P2;durP2;ratioP2
77016;SDS011;65949;53.132;17.930;2024-02-04T00:02:09;9.50;;;0.90;;
77016;SDS011;65949;53.132;17.930;2024-02-04T00:04:40;9.10;;;1.00;;
77016;SDS011;65949;53.132;17.930;2024-02-04T00:07:06;9.60;;;1.20;;
77016;SDS011;65949;53.132;17.930;2024-02-04T00:09:33;9.20;;;1.20;;
77016;SDS011;65949;53.132;17.930;2024-02-04T00:12:00;9.00;;;1.20;;
77016;SDS011;65949;53.132;17.930;2024-02-04T00:14:29;7.00;;;0.70;;
77016;SDS011;65949;53.132;17.930;2024-02-04T00:16:57;12.30;;;1.50;;
77016;SDS011;65949;53.132;17.930;2024-02-04T00:19:23;8.80;;;1.10;;
77016;SDS011;65949;53.132;17.930;2024-02-04T00:21:50;9.10;;;1.40;;
77016;SDS011;65949;53.132;17.930;2024-02-04T00:24:17;11.30;;;1.50;;
77016;SDS011;65949;53.132;17.930;2024-02-04T00:26:45;9.60;;;1.10;;
77016;SDS011;65949;53.132;17.930;2024-02-04T00:29:12;9.70;;;1.50;;
77016;SDS011;65949;53.132;17.930;2024-02-04T00:31:39;11.40;;;1.20;;
77016;SDS011;65949;53.132;17.930;2024-02-04T00:34:06;12.40;;;1.70;;
77016;SDS011;65949;53.132;17.930;2024-02-04T00:36:32;11.10;;;2.10;;
77016;SDS011;65949;53.132;17.930;2024-02-04T00:38:59;11.40;;;1.50;;
77016;SDS011;65949;53.132;17.930;2024-02-04T00:41:26;10.40;;;1.60;;
77016;SDS011;65949;53.132;17.930;2024-02-04T00:43:52;10.70;;;1.60;;
77016;SDS011;65949;53.132;17.930;2024-02-04T00:46:19;10.60;;;1.70;;
77016;SDS011;65949;53.132;17.930;2024-02-04T00:48:46;12.60;;;2.60;;
77016;SDS011;65949;53.132;17.930;2024-02-04T00:51:12;11.00;;;1.60;;
77016;SDS011;65949;53.132;17.930;2024-02-04T00:53:39;14.70;;;1.90;;
77016;SDS011;65949;53.132;17.930;2024-02-04T00:56:06;12.80;;;2.00;;
77016;SDS011;65949;53.132;17.930;2024-02-04T00:58:33;9.00;;;1.50;;
77016;SDS011;65949;53.132;17.930;2024-02-04T01:00:59;12.50;;;1.80;;
77016;SDS011;65949;53.132;17.930;2024-02-04T01:03:26;14.40;;;1.90;;
77016;SDS011;65949;53.132;17.930;2024-02-04T01:05:53;13.10;;;2.20;;
77016;SDS011;65949;53.132;17.930;2024-02-04T01:08:19;12.80;;;1.80;;
77016;SDS011;65949;53.132;17.930;2024-02-04T01:10:46;13.50;;;2.70;;
77016;SDS011;65949;53.132;17.930;2024-02-04T01:13:13;12.80;;;1.70;;
77016;SDS011;65949;53.132;17.930;2024-02-04T01:15:40;12.50;;;2.20;;
77016;SDS011;65949;53.132;17.930;2024-02-04T01:18:07;13.50;;;1.90;;
77016;SDS011;65949;53.132;17.930;2024-02-04T01:20:33;13.40;;;2.40;;
77016;SDS011;65949;53.132;17.930;2024-02-04T01:23:00;13.20;;;2.90;;
77016;SDS011;65949;53.132;17.930;2024-02-04T01:25:27;15.40;;;2.10;;
77016;SDS011;65949;53.132;17.930;2024-02-04T01:27:53;12.40;;;2.10;;
77016;SDS011;65949;53.132;17.930;2024-02-04T01:30:20;11.70;;;1.60;;
77016;SDS011;65949;53.132;17.930;2024-02-04T01:32:47;13.00;;;1.80;;
77016;SDS011;65949;53.132;17.930;2024-02-04T01:35:13;11.50;;;2.20;;
77016;SDS011;65949;53.132;17.930;2024-02-04T01:37:41;13.50;;;2.30;;
77016;SDS011;65949;53.132;17.930;2024-02-04T01:40:10;13.90;;;1.80;;
77016;SDS011;65949;53.132;17.930;2024-02-04T01:42:37;10.10;;;1.70;;
77016;SDS011;65949;53.132;17.930;2024-02-04T01:45:04;12.20;;;2.20;;
77016;SDS011;65949;53.132;17.930;2024-02-04T01:47:31;14.40;;;1.90;;
77016;SDS011;65949;53.132;17.930;2024-02-04T01:49:57;14.80;;;1.50;;
77016;SDS011;65949;53.132;17.930;2024-02-04T01:52:24;12.90;;;2.10;;
77016;SDS011;65949;53.132;17.930;2024-02-04T01:54:51;10.20;;;1.10;;
77016;SDS011;65949;53.132;17.930;2024-02-04T01:57:19;7.90;;;1.20;;
77016;SDS011;65949;53.132;17.930;2024-02-04T01:59:46;12.30;;;2.00;;
77016;SDS011;65949;53.132;17.930;2024-02-04T02:02:15;5.90;;;1.30;;
77016;SDS011;65949;53.132;17.930;2024-02-04T02:04:41;12.90;;;2.00;;
77016;SDS011;65949;53.132;17.930;2024-02-04T02:07:09;9.30;;;1.40;;
77016;SDS011;65949;53.132;17.930;2024-02-04T02:09:36;10.60;;;1.20;;
77016;SDS011;65949;53.132;17.930;2024-02-04T02:12:04;10.90;;;1.40;;
77016;SDS011;65949;53.132;17.930;2024-02-04T02:14:37;11.60;;;1.80;;
77016;SDS011;65949;53.132;17.930;2024-02-04T02:17:10;9.30;;;1.30;;
77016;SDS011;65949;53.132;17.930;2024-02-04T02:19:52;9.80;;;1.80;;
77016;SDS011;65949;53.132;17.930;2024-02-04T02:22:38;11.70;;;2.10;;
77016;SDS011;65949;53.132;17.930;2024-02-04T02:25:13;12.20;;;2.30;;
77016;SDS011;65949;53.132;17.930;2024-02-04T02:27:50;8.60;;;1.80;;
77016;SDS011;65949;53.132;17.930;2024-02-04T02:30:17;12.80;;;1.80;;
77016;SDS011;65949;53.132;17.930;2024-02-04T02:32:44;10.50;;;1.70;;
77016;SDS011;65949;53.132;17.930;2024-02-04T02:35:13;11.30;;;1.50;;
77016;SDS011;65949;53.132;17.930;2024-02-04T02:37:51;12.10;;;1.30;;
77016;SDS011;65949;53.132;17.930;2024-02-04T02:40:29;8.60;;;1.10;;
77016;SDS011;65949;53.132;17.930;2024-02-04T02:43:03;9.10;;;1.10;;
77016;SDS011;65949;53.132;17.930;2024-02-04T02:45:31;10.30;;;1.70;;
77016;SDS011;65949;53.132;17.930;2024-02-04T02:47:59;12.80;;;1.70;;
77016;SDS011;65949;53.132;17.930;2024-02-04T02:50:27;11.30;;;1.20;;
77016;SDS011;65949;53.132;17.930;2024-02-04T02:52:54;10.80;;;1.30;;
77016;SDS011;65949;53.132;17.930;2024-02-04T02:55:21;8.30;;;1.50;;
77016;SDS011;65949;53.132;17.930;2024-02-04T02:57:47;10.20;;;1.50;;
77016;SDS011;65949;53.132;17.930;2024-02-04T03:00:14;10.60;;;1.90;;
77016;SDS011;65949;53.132;17.930;2024-02-04T03:02:41;12.00;;;1.70;;
77016;SDS011;65949;53.132;17.930;2024-02-04T03:05:07;10.30;;;1.10;;
77016;SDS011;65949;53.132;17.930;2024-02-04T03:07:35;10.80;;;1.70;;
77016;SDS011;65949;53.132;17.930;2024-02-04T03:10:02;11.10;;;1.10;;
77016;SDS011;65949;53.132;17.930;2024-02-04T03:12:29;9.40;;;1.60;;
77016;SDS011;65949;53.132;17.930;2024-02-04T03:14:55;11.40;;;1.50;;
77016;SDS011;65949;53.132;17.930;2024-02-04T03:17:22;8.50;;;1.20;;
77016;SDS011;65949;53.132;17.930;2024-02-04T03:19:50;7.30;;;0.80;;
77016;SDS011;65949;53.132;17.930;2024-02-04T03:22:23;8.80;;;0.80;;
77016;SDS011;65949;53.132;17.930;2024-02-04T03:24:50;10.00;;;1.20;;
77016;SDS011;65949;53.132;17.930;2024-02-04T03:27:17;7.60;;;0.80;;
77016;SDS011;65949;53.132;17.930;2024-02-04T03:29:45;10.40;;;0.90;;
77016;SDS011;65949;53.132;17.930;2024-02-04T03:32:11;8.70;;;1.10;;
77016;SDS011;65949;53.132;17.930;2024-02-04T03:34:38;6.90;;;0.80;;
77016;SDS011;65949;53.132;17.930;2024-02-04T03:37:07;9.10;;;0.80;;
77016;SDS011;65949;53.132;17.930;2024-02-04T03:39:34;5.60;;;0.60;;
77016;SDS011;65949;53.132;17.930;2024-02-04T03:42:00;8.00;;;1.10;;
77016;SDS011;65949;53.132;17.930;2024-02-04T03:44:27;8.90;;;1.10;;
77016;SDS011;65949;53.132;17.930;2024-02-04T03:46:54;8.90;;;0.70;;
77016;SDS011;65949;53.132;17.930;2024-02-04T03:49:20;9.00;;;1.20;;
77016;SDS011;65949;53.132;17.930;2024-02-04T03:51:47;9.00;;;1.00;;
77016;SDS011;65949;53.132;17.930;2024-02-04T03:54:14;8.60;;;0.70;;
77016;SDS011;65949;53.132;17.930;2024-02-04T03:56:41;11.90;;;1.20;;
77016;SDS011;65949;53.132;17.930;2024-02-04T03:59:08;9.60;;;1.30;;
77016;SDS011;65949;53.132;17.930;2024-02-04T04:01:37;11.40;;;1.40;;
77016;SDS011;65949;53.132;17.930;2024-02-04T04:04:04;10.90;;;1.30;;
77016;SDS011;65949;53.132;17.930;2024-02-04T04:06:31;9.50;;;1.30;;
77016;SDS011;65949;53.132;17.930;2024-02-04T04:08:57;10.30;;;1.30;;
77016;SDS011;65949;53.132;17.930;2024-02-04T04:11:25;8.60;;;1.00;;
77016;SDS011;65949;53.132;17.930;2024-02-04T04:13:52;16.50;;;1.90;;
77016;SDS011;65949;53.132;17.930;2024-02-04T04:16:22;9.90;;;1.40;;
77016;SDS011;65949;53.132;17.930;2024-02-04T04:18:49;9.50;;;1.50;;
77016;SDS011;65949;53.132;17.930;2024-02-04T04:21:16;11.50;;;1.80;;
77016;SDS011;65949;53.132;17.930;2024-02-04T04:23:43;11.80;;;1.90;;
77016;SDS011;65949;53.132;17.930;2024-02-04T04:26:10;14.50;;;1.70;;
77016;SDS011;65949;53.132;17.930;2024-02-04T04:28:37;12.30;;;1.90;;
77016;SDS011;65949;53.132;17.930;2024-02-04T04:31:03;9.90;;;1.80;;
77016;SDS011;65949;53.132;17.930;2024-02-04T04:33:30;8.80;;;1.30;;
77016;SDS011;65949;53.132;17.930;2024-02-04T04:35:57;11.00;;;1.50;;
77016;SDS011;65949;53.132;17.930;2024-02-04T04:38:23;10.70;;;1.30;;
77016;SDS011;65949;53.132;17.930;2024-02-04T04:40:50;11.90;;;1.70;;
77016;SDS011;65949;53.132;17.930;2024-02-04T04:43:17;12.10;;;1.60;;
77016;SDS011;65949;53.132;17.930;2024-02-04T04:45:43;7.50;;;1.00;;
77016;SDS011;65949;53.132;17.930;2024-02-04T04:48:10;7.50;;;1.20;;
77016;SDS011;65949;53.132;17.930;2024-02-04T04:50:37;10.30;;;1.60;;
77016;SDS011;65949;53.132;17.930;2024-02-04T04:53:04;11.70;;;1.30;;
77016;SDS011;65949;53.132;17.930;2024-02-04T04:55:30;11.60;;;1.30;;
77016;SDS011;65949;53.132;17.930;2024-02-04T04:57:57;9.80;;;1.00;;
77016;SDS011;65949;53.132;17.930;2024-02-04T05:00:23;8.10;;;1.40;;
77016;SDS011;65949;53.132;17.930;2024-02-04T05:02:50;9.00;;;0.90;;
77016;SDS011;65949;53.132;17.930;2024-02-04T05:05:17;10.80;;;1.20;;
77016;SDS011;65949;53.132;17.930;2024-02-04T05:07:44;13.10;;;1.80;;
77016;SDS011;65949;53.132;17.930;2024-02-04T05:10:10;12.20;;;1.30;;
77016;SDS011;65949;53.132;17.930;2024-02-04T05:12:37;12.80;;;1.10;;
77016;SDS011;65949;53.132;17.930;2024-02-04T05:15:04;9.60;;;1.00;;
77016;SDS011;65949;53.132;17.930;2024-02-04T05:17:31;8.70;;;1.60;;
77016;SDS011;65949;53.132;17.930;2024-02-04T05:19:59;9.50;;;1.30;;
77016;SDS011;65949;53.132;17.930;2024-02-04T05:22:26;10.70;;;1.50;;
77016;SDS011;65949;53.132;17.930;2024-02-04T05:24:52;12.10;;;1.60;;
77016;SDS011;65949;53.132;17.930;2024-02-04T05:27:19;10.50;;;2.00;;
77016;SDS011;65949;53.132;17.930;2024-02-04T05:29:46;10.40;;;0.90;;
77016;SDS011;65949;53.132;17.930;2024-02-04T05:32:12;14.20;;;1.80;;
77016;SDS011;65949;53.132;17.930;2024-02-04T05:34:39;7.20;;;1.30;;
77016;SDS011;65949;53.132;17.930;2024-02-04T05:37:05;9.00;;;1.80;;
77016;SDS011;65949;53.132;17.930;2024-02-04T05:39:32;8.60;;;1.20;;
77016;SDS011;65949;53.132;17.930;2024-02-04T05:41:59;11.20;;;1.50;;
77016;SDS011;65949;53.132;17.930;2024-02-04T05:44:25;9.20;;;1.00;;
77016;SDS011;65949;53.132;17.930;2024-02-04T05:46:52;9.50;;;0.90;;
77016;SDS011;65949;53.132;17.930;2024-02-04T05:49:18;8.90;;;1.40;;
77016;SDS011;65949;53.132;17.930;2024-02-04T05:51:45;9.30;;;1.60;;
77016;SDS011;65949;53.132;17.930;2024-02-04T05:54:11;7.50;;;1.00;;
77016;SDS011;65949;53.132;17.930;2024-02-04T05:56:38;7.40;;;0.90;;
77016;SDS011;65949;53.132;17.930;2024-02-04T05:59:05;7.70;;;1.30;;
77016;SDS011;65949;53.132;17.930;2024-02-04T06:01:31;13.00;;;1.10;;
77016;SDS011;65949;53.132;17.930;2024-02-04T06:03:59;8.80;;;0.90;;
77016;SDS011;65949;53.132;17.930;2024-02-04T06:06:26;7.20;;;1.20;;
77016;SDS011;65949;53.132;17.930;2024-02-04T06:08:52;10.10;;;0.90;;
77016;SDS011;65949;53.132;17.930;2024-02-04T06:11:19;15.30;;;1.60;;
77016;SDS011;65949;53.132;17.930;2024-02-04T06:13:45;10.50;;;1.40;;
77016;SDS011;65949;53.132;17.930;2024-02-04T06:16:12;13.20;;;2.00;;
77016;SDS011;65949;53.132;17.930;2024-02-04T06:18:39;9.40;;;1.40;;
77016;SDS011;65949;53.132;17.930;2024-02-04T06:21:06;10.50;;;0.90;;
77016;SDS011;65949;53.132;17.930;2024-02-04T06:23:33;10.90;;;1.10;;
77016;SDS011;65949;53.132;17.930;2024-02-04T06:26:00;10.10;;;1.10;;
77016;SDS011;65949;53.132;17.930;2024-02-04T06:28:27;11.40;;;1.40;;
77016;SDS011;65949;53.132;17.930;2024-02-04T06:30:54;11.90;;;1.20;;
77016;SDS011;65949;53.132;17.930;2024-02-04T06:33:20;9.50;;;1.50;;
77016;SDS011;65949;53.132;17.930;2024-02-04T06:35:48;9.40;;;1.30;;
77016;SDS011;65949;53.132;17.930;2024-02-04T06:38:15;13.20;;;1.90;;
77016;SDS011;65949;53.132;17.930;2024-02-04T06:40:41;9.90;;;1.30;;
77016;SDS011;65949;53.132;17.930;2024-02-04T06:43:08;9.90;;;1.10;;
77016;SDS011;65949;53.132;17.930;2024-02-04T06:45:34;11.00;;;1.60;;
77016;SDS011;65949;53.132;17.930;2024-02-04T06:48:01;14.50;;;1.30;;
77016;SDS011;65949;53.132;17.930;2024-02-04T06:50:29;12.50;;;2.00;;
77016;SDS011;65949;53.132;17.930;2024-02-04T06:52:55;11.30;;;1.60;;
77016;SDS011;65949;53.132;17.930;2024-02-04T06:55:22;9.90;;;1.30;;
77016;SDS011;65949;53.132;17.930;2024-02-04T06:57:48;9.20;;;1.00;;
77016;SDS011;65949;53.132;17.930;2024-02-04T07:00:15;8.20;;;1.20;;
77016;SDS011;65949;53.132;17.930;2024-02-04T07:02:42;11.00;;;1.60;;
77016;SDS011;65949;53.132;17.930;2024-02-04T07:05:08;10.90;;;1.40;;
77016;SDS011;65949;53.132;17.930;2024-02-04T07:07:37;13.00;;;1.50;;
77016;SDS011;65949;53.132;17.930;2024-02-04T07:10:03;10.70;;;1.30;;
77016;SDS011;65949;53.132;17.930;2024-02-04T07:12:31;9.00;;;1.20;;
77016;SDS011;65949;53.132;17.930;2024-02-04T07:14:57;13.60;;;1.70;;
77016;SDS011;65949;53.132;17.930;2024-02-04T07:17:25;13.60;;;1.50;;
77016;SDS011;65949;53.132;17.930;2024-02-04T07:19:51;9.80;;;1.50;;
77016;SDS011;65949;53.132;17.930;2024-02-04T07:22:18;8.30;;;1.10;;
77016;SDS011;65949;53.132;17.930;2024-02-04T07:24:44;19.40;;;5.30;;
77016;SDS011;65949;53.132;17.930;2024-02-04T07:27:11;15.10;;;3.30;;
77016;SDS011;65949;53.132;17.930;2024-02-04T07:29:38;19.30;;;4.40;;
77016;SDS011;65949;53.132;17.930;2024-02-04T07:32:04;16.50;;;2.50;;
77016;SDS011;65949;53.132;17.930;2024-02-04T07:34:31;9.00;;;1.30;;
77016;SDS011;65949;53.132;17.930;2024-02-04T07:36:58;16.40;;;1.70;;
77016;SDS011;65949;53.132;17.930;2024-02-04T07:39:24;11.00;;;1.30;;
77016;SDS011;65949;53.132;17.930;2024-02-04T07:41:51;15.10;;;2.10;;
77016;SDS011;65949;53.132;17.930;2024-02-04T07:44:20;8.30;;;1.30;;
77016;SDS011;65949;53.132;17.930;2024-02-04T07:46:47;9.00;;;0.90;;
77016;SDS011;65949;53.132;17.930;2024-02-04T07:49:13;9.00;;;0.90;;
77016;SDS011;65949;53.132;17.930;2024-02-04T07:51:40;10.10;;;1.30;;
77016;SDS011;65949;53.132;17.930;2024-02-04T07:54:06;11.10;;;1.00;;
77016;SDS011;65949;53.132;17.930;2024-02-04T07:56:33;14.90;;;1.80;;
77016;SDS011;65949;53.132;17.930;2024-02-04T07:58:59;15.70;;;1.50;;
77016;SDS011;65949;53.132;17.930;2024-02-04T08:01:26;10.70;;;0.90;;
77016;SDS011;65949;53.132;17.930;2024-02-04T08:03:53;15.70;;;2.20;;
77016;SDS011;65949;53.132;17.930;2024-02-04T08:06:19;15.00;;;2.00;;
77016;SDS011;65949;53.132;17.930;2024-02-04T08:08:46;9.70;;;1.20;;
77016;SDS011;65949;53.132;17.930;2024-02-04T08:11:20;11.80;;;1.40;;
77016;SDS011;65949;53.132;17.930;2024-02-04T08:13:47;11.20;;;1.10;;
77016;SDS011;65949;53.132;17.930;2024-02-04T08:16:14;9.20;;;1.00;;
77016;SDS011;65949;53.132;17.930;2024-02-04T08:18:41;15.90;;;1.60;;
77016;SDS011;65949;53.132;17.930;2024-02-04T08:21:08;12.10;;;1.70;;
77016;SDS011;65949;53.132;17.930;2024-02-04T08:23:35;6.60;;;0.70;;
77016;SDS011;65949;53.132;17.930;2024-02-04T08:26:02;11.00;;;1.40;;
77016;SDS011;65949;53.132;17.930;2024-02-04T08:28:29;11.30;;;1.60;;
77016;SDS011;65949;53.132;17.930;2024-02-04T08:30:56;10.50;;;1.30;;
77016;SDS011;65949;53.132;17.930;2024-02-04T08:33:23;8.50;;;1.40;;
77016;SDS011;65949;53.132;17.930;2024-02-04T08:35:50;9.00;;;1.10;;
77016;SDS011;65949;53.132;17.930;2024-02-04T08:38:16;9.70;;;1.40;;
77016;SDS011;65949;53.132;17.930;2024-02-04T08:40:43;10.50;;;1.20;;
77016;SDS011;65949;53.132;17.930;2024-02-04T08:43:09;13.60;;;1.40;;
77016;SDS011;65949;53.132;17.930;2024-02-04T08:45:36;9.80;;;1.60;;
77016;SDS011;65949;53.132;17.930;2024-02-04T08:48:03;10.60;;;1.20;;
77016;SDS011;65949;53.132;17.930;2024-02-04T08:50:29;13.70;;;1.70;;
77016;SDS011;65949;53.132;17.930;2024-02-04T08:52:56;13.70;;;1.50;;
77016;SDS011;65949;53.132;17.930;2024-02-04T08:55:23;23.00;;;5.00;;
77016;SDS011;65949;53.132;17.930;2024-02-04T08:57:49;43.30;;;15.20;;
77016;SDS011;65949;53.132;17.930;2024-02-04T09:00:16;31.70;;;8.60;;
77016;SDS011;65949;53.132;17.930;2024-02-04T09:02:43;10.00;;;1.50;;
77016;SDS011;65949;53.132;17.930;2024-02-04T09:05:10;14.80;;;2.60;;
77016;SDS011;65949;53.132;17.930;2024-02-04T09:07:37;12.10;;;1.80;;
77016;SDS011;65949;53.132;17.930;2024-02-04T09:10:05;12.70;;;1.90;;
77016;SDS011;65949;53.132;17.930;2024-02-04T09:12:33;13.80;;;1.30;;
77016;SDS011;65949;53.132;17.930;2024-02-04T09:15:00;8.30;;;1.20;;
77016;SDS011;65949;53.132;17.930;2024-02-04T09:17:27;11.20;;;1.50;;
77016;SDS011;65949;53.132;17.930;2024-02-04T09:19:53;9.50;;;1.60;;
77016;SDS011;65949;53.132;17.930;2024-02-04T09:22:20;11.50;;;2.00;;
77016;SDS011;65949;53.132;17.930;2024-02-04T09:24:46;11.50;;;2.00;;
77016;SDS011;65949;53.132;17.930;2024-02-04T09:27:13;10.20;;;1.40;;
77016;SDS011;65949;53.132;17.930;2024-02-04T09:29:39;7.30;;;0.90;;
77016;SDS011;65949;53.132;17.930;2024-02-04T09:32:06;11.10;;;1.20;;
77016;SDS011;65949;53.132;17.930;2024-02-04T09:34:34;9.30;;;1.00;;
77016;SDS011;65949;53.132;17.930;2024-02-04T09:37:00;9.80;;;1.40;;
77016;SDS011;65949;53.132;17.930;2024-02-04T09:39:29;10.00;;;1.70;;
77016;SDS011;65949;53.132;17.930;2024-02-04T09:41:56;8.80;;;1.20;;
77016;SDS011;65949;53.132;17.930;2024-02-04T09:44:23;8.90;;;1.50;;
77016;SDS011;65949;53.132;17.930;2024-02-04T09:46:50;15.00;;;2.10;;
77016;SDS011;65949;53.132;17.930;2024-02-04T09:49:18;13.50;;;1.80;;
77016;SDS011;65949;53.132;17.930;2024-02-04T09:51:45;14.60;;;2.00;;
77016;SDS011;65949;53.132;17.930;2024-02-04T09:54:13;35.50;;;8.60;;
77016;SDS011;65949;53.132;17.930;2024-02-04T09:56:42;88.40;;;19.60;;
77016;SDS011;65949;53.132;17.930;2024-02-04T09:59:09;36.50;;;6.60;;
77016;SDS011;65949;53.132;17.930;2024-02-04T10:01:36;68.40;;;10.60;;
77016;SDS011;65949;53.132;17.930;2024-02-04T10:04:03;28.70;;;5.40;;
77016;SDS011;65949;53.132;17.930;2024-02-04T10:06:29;18.50;;;3.20;;
77016;SDS011;65949;53.132;17.930;2024-02-04T10:08:56;17.50;;;2.80;;
77016;SDS011;65949;53.132;17.930;2024-02-04T10:11:23;15.90;;;2.30;;
77016;SDS011;65949;53.132;17.930;2024-02-04T10:13:50;8.60;;;1.50;;
77016;SDS011;65949;53.132;17.930;2024-02-04T10:16:16;10.00;;;1.70;;
77016;SDS011;65949;53.132;17.930;2024-02-04T10:18:44;12.20;;;1.40;;
77016;SDS011;65949;53.132;17.930;2024-02-04T10:21:15;11.10;;;1.40;;
77016;SDS011;65949;53.132;17.930;2024-02-04T10:23:46;10.30;;;1.60;;
77016;SDS011;65949;53.132;17.930;2024-02-04T10:26:14;10.60;;;1.80;;
77016;SDS011;65949;53.132;17.930;2024-02-04T10:28:41;9.30;;;1.40;;
77016;SDS011;65949;53.132;17.930;2024-02-04T10:31:08;4.50;;;0.80;;
77016;SDS011;65949;53.132;17.930;2024-02-04T10:33:36;9.30;;;1.20;;
77016;SDS011;65949;53.132;17.930;2024-02-04T10:36:04;12.10;;;2.20;;
77016;SDS011;65949;53.132;17.930;2024-02-04T10:38:31;7.00;;;1.50;;
77016;SDS011;65949;53.132;17.930;2024-02-04T10:40:59;8.00;;;0.90;;
77016;SDS011;65949;53.132;17.930;2024-02-04T10:43:33;11.70;;;1.80;;
77016;SDS011;65949;53.132;17.930;2024-02-04T10:46:01;10.30;;;1.20;;
77016;SDS011;65949;53.132;17.930;2024-02-04T10:48:37;8.90;;;1.90;;
77016;SDS011;65949;53.132;17.930;2024-02-04T10:51:12;11.00;;;2.30;;
77016;SDS011;65949;53.132;17.930;2024-02-04T10:53:41;9.80;;;1.40;;
77016;SDS011;65949;53.132;17.930;2024-02-04T10:56:25;10.30;;;1.40;;
77016;SDS011;65949;53.132;17.930;2024-02-04T10:58:54;7.40;;;1.10;;
77016;SDS011;65949;53.132;17.930;2024-02-04T11:01:22;9.00;;;1.60;;
77016;SDS011;65949;53.132;17.930;2024-02-04T11:03:50;8.90;;;1.50;;
77016;SDS011;65949;53.132;17.930;2024-02-04T11:06:18;9.70;;;1.20;;
77016;SDS011;65949;53.132;17.930;2024-02-04T11:08:48;8.20;;;1.10;;
77016;SDS011;65949;53.132;17.930;2024-02-04T11:11:21;10.00;;;1.60;;
77016;SDS011;65949;53.132;17.930;2024-02-04T11:13:53;8.50;;;1.40;;
77016;SDS011;65949;53.132;17.930;2024-02-04T11:27:01;29.60;;;10.50;;
77016;SDS011;65949;53.132;17.930;2024-02-04T11:29:28;31.30;;;9.50;;
77016;SDS011;65949;53.132;17.930;2024-02-04T11:31:56;49.50;;;12.00;;
77016;SDS011;65949;53.132;17.930;2024-02-04T11:34:23;59.00;;;12.80;;
77016;SDS011;65949;53.132;17.930;2024-02-04T11:36:50;39.70;;;5.30;;
77016;SDS011;65949;53.132;17.930;2024-02-04T11:39:19;26.40;;;3.50;;
77016;SDS011;65949;53.132;17.930;2024-02-04T11:41:50;23.30;;;3.00;;
77016;SDS011;65949;53.132;17.930;2024-02-04T11:44:21;8.10;;;1.60;;
77016;SDS011;65949;53.132;17.930;2024-02-04T11:46:49;7.90;;;1.30;;
77016;SDS011;65949;53.132;17.930;2024-02-04T11:49:16;12.30;;;1.70;;
77016;SDS011;65949;53.132;17.930;2024-02-04T11:51:47;9.30;;;1.40;;
77016;SDS011;65949;53.132;17.930;2024-02-04T11:54:15;8.20;;;1.60;;
77016;SDS011;65949;53.132;17.930;2024-02-04T11:56:43;6.80;;;1.00;;
77016;SDS011;65949;53.132;17.930;2024-02-04T11:59:10;10.80;;;1.40;;
77016;SDS011;65949;53.132;17.930;2024-02-04T12:01:40;9.30;;;1.00;;
77016;SDS011;65949;53.132;17.930;2024-02-04T12:04:11;9.10;;;1.40;;
77016;SDS011;65949;53.132;17.930;2024-02-04T12:06:42;8.70;;;1.00;;
77016;SDS011;65949;53.132;17.930;2024-02-04T12:09:09;9.90;;;1.10;;
77016;SDS011;65949;53.132;17.930;2024-02-04T12:11:37;5.40;;;1.00;;
77016;SDS011;65949;53.132;17.930;2024-02-04T12:14:07;9.10;;;1.30;;
77016;SDS011;65949;53.132;17.930;2024-02-04T12:16:34;11.60;;;1.70;;
77016;SDS011;65949;53.132;17.930;2024-02-04T12:19:02;8.20;;;1.10;;
77016;SDS011;65949;53.132;17.930;2024-02-04T12:21:32;5.10;;;0.70;;
77016;SDS011;65949;53.132;17.930;2024-02-04T12:23:59;10.10;;;1.90;;
77016;SDS011;65949;53.132;17.930;2024-02-04T12:26:26;11.50;;;1.90;;
77016;SDS011;65949;53.132;17.930;2024-02-04T12:28:53;8.70;;;1.80;;
77016;SDS011;65949;53.132;17.930;2024-02-04T12:31:22;6.50;;;1.00;;
77016;SDS011;65949;53.132;17.930;2024-02-04T12:33:58;10.70;;;1.90;;
77016;SDS011;65949;53.132;17.930;2024-02-04T12:36:28;9.30;;;1.50;;
77016;SDS011;65949;53.132;17.930;2024-02-04T12:38:56;8.70;;;1.40;;
77016;SDS011;65949;53.132;17.930;2024-02-04T12:41:24;10.30;;;1.50;;
77016;SDS011;65949;53.132;17.930;2024-02-04T12:43:52;9.60;;;1.70;;
77016;SDS011;65949;53.132;17.930;2024-02-04T12:46:21;5.40;;;1.10;;
77016;SDS011;65949;53.132;17.930;2024-02-04T12:48:52;9.80;;;1.80;;
77016;SDS011;65949;53.132;17.930;2024-02-04T12:51:29;12.20;;;2.50;;
77016;SDS011;65949;53.132;17.930;2024-02-04T12:54:07;10.60;;;2.30;;
77016;SDS011;65949;53.132;17.930;2024-02-04T12:56:43;6.50;;;1.50;;
77016;SDS011;65949;53.132;17.930;2024-02-04T12:59:09;6.70;;;1.40;;
77016;SDS011;65949;53.132;17.930;2024-02-04T13:01:40;11.00;;;2.10;;
77016;SDS011;65949;53.132;17.930;2024-02-04T13:04:06;10.00;;;1.80;;
77016;SDS011;65949;53.132;17.930;2024-02-04T13:06:37;6.10;;;1.10;;
77016;SDS011;65949;53.132;17.930;2024-02-04T13:09:05;9.70;;;2.10;;
77016;SDS011;65949;53.132;17.930;2024-02-04T13:11:33;10.30;;;2.10;;
77016;SDS011;65949;53.132;17.930;2024-02-04T13:14:00;23.60;;;8.00;;
77016;SDS011;65949;53.132;17.930;2024-02-04T13:16:26;9.80;;;2.00;;
77016;SDS011;65949;53.132;17.930;2024-02-04T13:18:54;12.30;;;3.20;;
77016;SDS011;65949;53.132;17.930;2024-02-04T13:21:20;15.70;;;3.00;;
77016;SDS011;65949;53.132;17.930;2024-02-04T13:23:49;7.20;;;2.00;;
77016;SDS011;65949;53.132;17.930;2024-02-04T13:26:16;9.10;;;1.60;;
77016;SDS011;65949;53.132;17.930;2024-02-04T13:28:43;7.70;;;1.30;;
77016;SDS011;65949;53.132;17.930;2024-02-04T13:31:10;9.80;;;2.20;;
77016;SDS011;65949;53.132;17.930;2024-02-04T13:33:40;9.30;;;1.90;;
77016;SDS011;65949;53.132;17.930;2024-02-04T13:36:07;11.50;;;1.70;;
77016;SDS011;65949;53.132;17.930;2024-02-04T13:38:34;11.10;;;1.70;;
77016;SDS011;65949;53.132;17.930;2024-02-04T13:41:02;8.50;;;1.60;;
77016;SDS011;65949;53.132;17.930;2024-02-04T13:43:32;8.50;;;1.40;;
77016;SDS011;65949;53.132;17.930;2024-02-04T13:45:59;7.40;;;1.40;;
77016;SDS011;65949;53.132;17.930;2024-02-04T13:48:27;8.60;;;1.00;;
77016;SDS011;65949;53.132;17.930;2024-02-04T13:50:53;9.50;;;1.70;;
77016;SDS011;65949;53.132;17.930;2024-02-04T13:53:20;6.90;;;1.60;;
77016;SDS011;65949;53.132;17.930;2024-02-04T13:55:48;9.60;;;1.90;;
77016;SDS011;65949;53.132;17.930;2024-02-04T13:58:15;8.40;;;1.60;;
77016;SDS011;65949;53.132;17.930;2024-02-04T14:00:44;6.60;;;1.30;;
77016;SDS011;65949;53.132;17.930;2024-02-04T14:03:11;8.20;;;1.60;;
77016;SDS011;65949;53.132;17.930;2024-02-04T14:05:39;8.30;;;1.70;;
77016;SDS011;65949;53.132;17.930;2024-02-04T14:08:07;8.70;;;2.00;;
77016;SDS011;65949;53.132;17.930;2024-02-04T14:10:34;9.90;;;2.30;;
77016;SDS011;65949;53.132;17.930;2024-02-04T14:13:00;7.70;;;2.20;;
77016;SDS011;65949;53.132;17.930;2024-02-04T14:15:27;8.80;;;1.80;;
77016;SDS011;65949;53.132;17.930;2024-02-04T14:17:54;10.70;;;1.90;;
77016;SDS011;65949;53.132;17.930;2024-02-04T14:20:20;9.60;;;2.20;;
77016;SDS011;65949;53.132;17.930;2024-02-04T14:22:48;8.60;;;1.80;;
77016;SDS011;65949;53.132;17.930;2024-02-04T14:25:15;11.40;;;3.00;;
77016;SDS011;65949;53.132;17.930;2024-02-04T14:27:42;9.40;;;2.00;;
77016;SDS011;65949;53.132;17.930;2024-02-04T14:30:09;9.70;;;1.50;;
77016;SDS011;65949;53.132;17.930;2024-02-04T14:32:36;7.20;;;1.50;;
77016;SDS011;65949;53.132;17.930;2024-02-04T14:35:03;7.40;;;1.30;;
77016;SDS011;65949;53.132;17.930;2024-02-04T14:37:31;5.70;;;1.30;;
77016;SDS011;65949;53.132;17.930;2024-02-04T14:40:01;7.60;;;1.20;;